Time;durP1;ratioP1;P1;durP2;ratioP2;P2;SDS_P1;SDS_P2;PMS_P1;PMS_P2;Temp;Humidity;BMP_temperature;BMP_pressure;BME280_temperature;BME280_humidity;BME280_pressure;Samples;Min_cycle;Max_cycle;Signal;HPM_P1;HPM_P2
2022/08/26 00:02:28;;;;;;;;;;;;;;;26.90;50.96;100465.03;5037133;28;19913;-80
2022/08/26 00:05:12;;;;;;;;;;;;;;;26.87;50.98;100460.34;5041026;28;20316;-82
2022/08/26 00:07:57;;;;;;;;;;;;;;;26.82;50.87;100453.22;5056889;28;19913;-82
2022/08/26 00:10:41;;;;;;;;;;;;;;;26.82;50.87;100450.41;5042024;28;20362;-82
2022/08/26 00:13:27;;;;;;;;;;;;;;;26.82;51.12;100454.00;5045020;28;20437;-79
2022/08/26 00:16:11;;;;;;;;;;;;;;;26.83;50.86;100452.00;5042828;28;19913;-80
2022/08/26 00:18:55;;;;;;;;;;;;;;;26.92;50.66;100448.66;5028750;28;19913;-80
2022/08/26 00:21:40;;;;;;;;;;;;;;;26.92;50.87;100443.09;5041407;28;19917;-80
2022/08/26 00:24:24;;;;;;;;;;;;;;;26.92;50.79;100452.22;5037989;28;19913;-80
2022/08/26 00:27:08;;;;;;;;;;;;;;;26.89;50.86;100453.09;5030931;28;19917;-80
2022/08/26 00:29:53;;;;;;;;;;;;;;;26.84;51.17;100456.38;5024104;28;20282;-79
2022/08/26 00:32:38;;;;;;;;;;;;;;;26.88;50.73;100451.50;5032899;28;19917;-79
2022/08/26 00:35:23;;;;;;;;;;;;;;;26.92;50.93;100446.63;5020671;28;19913;-78
2022/08/26 00:38:07;;;;;;;;;;;;;;;26.96;50.82;100447.34;5025985;28;19920;-79
2022/08/26 00:40:53;;;;;;;;;;;;;;;26.99;50.52;100446.47;5032614;28;19913;-80
2022/08/26 00:43:38;;;;;;;;;;;;;;;27.03;50.65;100447.19;5047427;28;19913;-80
2022/08/26 00:46:28;;;;;;;;;;;;;;;27.06;50.32;100434.38;5046869;28;19921;-80
2022/08/26 00:49:16;;;;;;;;;;;;;;;27.09;50.27;100448.25;5038606;28;19913;-80
2022/08/26 00:52:02;;;;;;;;;;;;;;;27.07;50.36;100433.91;5040713;28;19913;-80
2022/08/26 00:55:08;;;;;;;;;;;;;;;27.06;50.82;100437.94;5052367;28;19913;-78
2022/08/26 00:57:52;;;;;;;;;;;;;;;27.05;50.87;100439.16;5039220;28;19913;-79
2022/08/26 01:00:37;;;;;;;;;;;;;;;27.02;50.68;100434.44;5041573;28;19920;-79
2022/08/26 01:03:24;;;;;;;;;;;;;;;27.06;50.59;100434.38;5038617;28;19913;-79
2022/08/26 01:06:09;;;;;;;;;;;;;;;26.97;51.27;100432.16;5039354;28;19925;-79
2022/08/26 01:08:54;;;;;;;;;;;;;;;26.87;51.75;100435.97;5024449;28;19999;-78
2022/08/26 01:11:39;;;;;;;;;;;;;;;26.89;51.20;100429.97;5038929;28;20378;-78
2022/08/26 01:14:25;;;;;;;;;;;;;;;26.96;50.81;100427.81;5038400;28;19912;-79
2022/08/26 01:17:10;;;;;;;;;;;;;;;27.00;50.63;100434.09;5038999;28;19913;-78
2022/08/26 01:20:06;;;;;;;;;;;;;;;27.05;50.90;100432.78;5038251;28;19914;-79
2022/08/26 01:22:54;;;;;;;;;;;;;;;27.04;50.94;100425.63;5038969;28;19921;-79
2022/08/26 01:25:45;;;;;;;;;;;;;;;27.04;50.92;100426.44;5038456;28;20386;-79
2022/08/26 01:28:32;;;;;;;;;;;;;;;26.96;50.77;100413.06;5045686;28;19913;-78
2022/08/26 01:31:19;;;;;;;;;;;;;;;27.06;51.21;100421.22;5054355;28;19913;-78
2022/08/26 01:34:11;;;;;;;;;;;;;;;27.10;50.91;100421.09;5037325;28;19913;-78
2022/08/26 01:37:00;;;;;;;;;;;;;;;27.11;50.55;100429.06;5038377;28;19912;-80
2022/08/26 01:39:46;;;;;;;;;;;;;;;27.08;51.12;100426.34;5042593;28;19913;-78
2022/08/26 01:42:30;;;;;;;;;;;;;;;27.07;51.17;100416.41;5038487;28;20329;-79
2022/08/26 01:45:20;;;;;;;;;;;;;;;27.04;50.67;100420.84;5038655;28;19913;-79
2022/08/26 01:48:09;;;;;;;;;;;;;;;27.01;51.28;100418.16;5039164;28;19913;-79
2022/08/26 01:50:55;;;;;;;;;;;;;;;27.03;51.05;100413.69;5023110;28;19921;-79
2022/08/26 01:53:40;;;;;;;;;;;;;;;26.96;51.49;100413.88;5039311;28;19913;-79
2022/08/26 01:56:25;;;;;;;;;;;;;;;26.91;51.17;100408.81;5049625;28;19912;-79
2022/08/26 01:59:13;;;;;;;;;;;;;;;26.89;51.32;100410.44;5038175;28;20337;-79
2022/08/26 02:01:57;;;;;;;;;;;;;;;26.78;51.54;100411.44;5026712;28;20323;-79
2022/08/26 02:04:47;;;;;;;;;;;;;;;26.89;51.75;100408.44;5048043;28;19913;-78
2022/08/26 02:07:32;;;;;;;;;;;;;;;26.94;51.18;100412.72;5037308;28;19916;-79
2022/08/26 02:10:16;;;;;;;;;;;;;;;26.96;51.27;100419.44;5037870;28;19913;-78
2022/08/26 02:13:01;;;;;;;;;;;;;;;26.95;51.31;100417.88;5038716;28;19912;-79
2022/08/26 02:15:46;;;;;;;;;;;;;;;26.75;52.32;100414.31;5038836;28;19913;-79
2022/08/26 02:18:33;;;;;;;;;;;;;;;26.88;51.54;100406.88;5034501;28;19913;-79
2022/08/26 02:21:18;;;;;;;;;;;;;;;26.94;51.32;100407.13;5037216;28;19917;-79
2022/08/26 02:24:07;;;;;;;;;;;;;;;26.96;51.34;100415.88;5035848;28;19913;-78
2022/08/26 02:26:52;;;;;;;;;;;;;;;27.00;51.28;100417.34;5033981;28;19917;-79
2022/08/26 02:29:40;;;;;;;;;;;;;;;27.00;51.54;100406.19;5038442;28;19913;-78
2022/08/26 02:32:24;;;;;;;;;;;;;;;27.03;51.52;100407.31;5023567;28;19914;-79
2022/08/26 02:35:10;;;;;;;;;;;;;;;27.05;51.11;100407.66;5036577;28;19913;-80
2022/08/26 02:37:54;;;;;;;;;;;;;;;26.86;51.47;100400.13;5031513;28;19913;-79
2022/08/26 02:40:42;;;;;;;;;;;;;;;26.74;51.99;100399.59;5025985;28;19913;-79
2022/08/26 02:43:27;;;;;;;;;;;;;;;26.89;51.58;100402.84;5031651;28;19917;-79
2022/08/26 02:46:11;;;;;;;;;;;;;;;26.94;51.89;100402.34;5040389;28;19917;-77
2022/08/26 02:48:56;;;;;;;;;;;;;;;26.87;51.96;100394.13;5022955;28;19913;-79
2022/08/26 02:51:41;;;;;;;;;;;;;;;26.74;52.10;100393.22;5044117;28;19913;-80
2022/08/26 02:54:25;;;;;;;;;;;;;;;26.49;53.29;100387.41;5059329;28;20390;-78
2022/08/26 02:57:10;;;;;;;;;;;;;;;26.60;52.74;100385.97;5043222;28;19913;-78
2022/08/26 02:59:55;;;;;;;;;;;;;;;26.57;53.08;100386.81;5042830;28;19913;-78
2022/08/26 03:02:39;;;;;;;;;;;;;;;26.58;53.12;100384.81;5040719;28;19913;-77
2022/08/26 03:05:24;;;;;;;;;;;;;;;26.61;53.19;100383.97;5044051;28;19913;-78
2022/08/26 03:08:10;;;;;;;;;;;;;;;26.47;53.59;100375.88;5042929;28;19917;-79
2022/08/26 03:10:54;;;;;;;;;;;;;;;26.58;53.33;100379.22;5032718;28;19913;-77
2022/08/26 03:13:39;;;;;;;;;;;;;;;26.58;53.25;100382.00;5036915;28;19913;-78
2022/08/26 03:16:24;;;;;;;;;;;;;;;26.56;53.26;100376.09;5039309;28;19917;-77
2022/08/26 03:19:08;;;;;;;;;;;;;;;26.53;53.45;100374.16;5041353;28;20301;-77
2022/08/26 03:21:53;;;;;;;;;;;;;;;26.49;53.49;100368.66;5030179;28;19913;-77
2022/08/26 03:24:38;;;;;;;;;;;;;;;26.46;53.92;100372.34;5033585;28;20036;-78
2022/08/26 03:27:22;;;;;;;;;;;;;;;26.37;54.02;100363.75;5050074;28;19917;-77
2022/08/26 03:33:11;;;;;;;;;;;;;;;26.25;54.49;100368.00;5042831;28;19913;-77
2022/08/26 03:35:56;;;;;;;;;;;;;;;26.21;54.77;100361.66;5041453;28;19913;-76
2022/08/26 03:38:40;;;;;;;;;;;;;;;26.20;54.78;100368.47;5041625;28;19913;-77
2022/08/26 03:41:25;;;;;;;;;;;;;;;26.18;54.80;100361.75;5021653;28;19914;-77
2022/08/26 03:44:10;;;;;;;;;;;;;;;26.15;54.42;100371.75;5037556;28;20372;-77
2022/08/26 03:46:54;;;;;;;;;;;;;;;26.13;54.52;100370.59;5034748;28;20394;-77
2022/08/26 03:49:39;;;;;;;;;;;;;;;26.10;54.52;100374.25;5033276;28;19917;-78
2022/08/26 03:52:24;;;;;;;;;;;;;;;26.10;54.62;100368.69;5032395;28;19913;-77
2022/08/26 03:55:09;;;;;;;;;;;;;;;26.10;54.61;100363.13;5052918;28;19916;-77
2022/08/26 03:57:53;;;;;;;;;;;;;;;26.12;54.48;100358.66;5052566;28;20293;-77
2022/08/26 04:00:38;;;;;;;;;;;;;;;26.17;54.06;100369.31;5048358;28;19913;-78
2022/08/26 04:06:29;;;;;;;;;;;;;;;26.16;54.05;100369.75;5037102;28;19917;-77
2022/08/26 04:09:16;;;;;;;;;;;;;;;26.21;54.13;100363.69;5041761;28;19921;-77
2022/08/26 04:12:02;;;;;;;;;;;;;;;26.23;54.04;100361.25;5040068;28;19913;-77
2022/08/26 04:14:47;;;;;;;;;;;;;;;26.24;53.98;100363.63;5041601;28;19917;-77
2022/08/26 04:17:31;;;;;;;;;;;;;;;26.22;53.76;100359.69;5040771;28;19913;-77
2022/08/26 04:20:17;;;;;;;;;;;;;;;26.15;54.20;100368.19;5038125;28;19913;-77
2022/08/26 04:23:01;;;;;;;;;;;;;;;26.16;54.07;100361.41;5039182;28;19917;-77
2022/08/26 04:25:46;;;;;;;;;;;;;;;26.16;54.17;100361.41;5055061;28;19913;-77
2022/08/26 04:28:30;;;;;;;;;;;;;;;26.16;54.02;100359.38;5045100;28;19913;-77
2022/08/26 04:31:15;;;;;;;;;;;;;;;26.19;53.83;100364.09;5039597;28;19913;-77
2022/08/26 04:34:03;;;;;;;;;;;;;;;26.16;54.14;100367.72;5029822;28;19914;-77
2022/08/26 04:36:47;;;;;;;;;;;;;;;26.10;54.11;100360.31;5034221;28;19925;-77
2022/08/26 04:39:32;;;;;;;;;;;;;;;26.06;54.43;100354.81;5044074;28;19916;-77
2022/08/26 04:42:16;;;;;;;;;;;;;;;26.04;54.44;100368.41;5042023;28;19913;-77
2022/08/26 04:45:03;;;;;;;;;;;;;;;26.04;54.23;100365.63;5047500;28;19916;-77
2022/08/26 04:47:47;;;;;;;;;;;;;;;25.99;54.52;100366.13;5010273;28;19921;-77
2022/08/26 04:50:31;;;;;;;;;;;;;;;26.00;54.61;100370.47;5042387;28;19913;-77
2022/08/26 04:53:16;;;;;;;;;;;;;;;26.06;54.07;100376.34;5036571;28;19913;-77
2022/08/26 04:56:00;;;;;;;;;;;;;;;26.06;54.32;100365.19;5029444;28;20370;-77
2022/08/26 04:58:45;;;;;;;;;;;;;;;26.08;54.12;100368.31;5037013;28;19914;-78
2022/08/26 05:01:30;;;;;;;;;;;;;;;26.01;54.36;100366.44;5020567;28;19917;-77
2022/08/26 05:04:15;;;;;;;;;;;;;;;25.95;54.22;100368.97;5031736;28;19913;-77
2022/08/26 05:07:00;;;;;;;;;;;;;;;25.91;54.40;100373.03;5044245;28;19917;-77
2022/08/26 05:09:44;;;;;;;;;;;;;;;25.91;54.37;100373.03;5032964;28;19913;-79
2022/08/26 05:12:30;;;;;;;;;;;;;;;25.90;54.33;100377.06;5048641;28;19917;-77
2022/08/26 05:15:14;;;;;;;;;;;;;;;25.89;54.27;100372.69;5038961;28;19913;-77
2022/08/26 05:17:59;;;;;;;;;;;;;;;25.84;54.55;100378.75;5049107;28;19917;-77
2022/08/26 05:20:45;;;;;;;;;;;;;;;25.81;54.60;100372.03;5047007;28;19921;-77
2022/08/26 05:23:31;;;;;;;;;;;;;;;25.81;54.37;100376.81;5051192;28;19913;-77
2022/08/26 05:26:16;;;;;;;;;;;;;;;25.82;54.71;100381.16;5033390;28;19917;-78
2022/08/26 05:29:00;;;;;;;;;;;;;;;25.84;54.78;100382.31;5041768;28;19913;-77
2022/08/26 05:31:44;;;;;;;;;;;;;;;25.88;54.56;100382.25;5046301;23;19921;-64
2022/08/26 05:34:29;;;;;;;;;;;;;;;25.90;54.32;100383.41;5007646;28;19926;-62
2022/08/26 05:37:14;;;;;;;;;;;;;;;25.92;54.41;100380.97;5019105;28;19913;-63
2022/08/26 05:40:01;;;;;;;;;;;;;;;25.90;54.71;100383.41;5020454;28;19917;-63
2022/08/26 05:42:46;;;;;;;;;;;;;;;25.89;54.72;100379.03;5030273;28;19917;-62
2022/08/26 05:45:32;;;;;;;;;;;;;;;25.91;54.71;100389.75;5027028;28;19913;-61
2022/08/26 05:48:17;;;;;;;;;;;;;;;25.93;54.92;100392.91;5025535;28;19921;-62
2022/08/26 05:51:04;;;;;;;;;;;;;;;25.96;54.82;100390.03;5025815;28;19913;-63
2022/08/26 05:53:49;;;;;;;;;;;;;;;26.02;55.01;100384.75;5007355;28;20303;-65
2022/08/26 05:56:33;;;;;;;;;;;;;;;26.06;54.87;100398.63;5004861;28;19913;-62
2022/08/26 05:59:19;;;;;;;;;;;;;;;26.08;54.60;100399.78;5001711;28;19914;-62
2022/08/26 06:02:04;;;;;;;;;;;;;;;26.08;54.59;100398.97;4998313;28;19913;-63
2022/08/26 06:04:49;;;;;;;;;;;;;;;26.12;54.70;100400.47;5018235;28;19917;-62
2022/08/26 06:10:43;;;;;;;;;;;;;;;26.20;54.91;100406.72;5017165;28;19912;-63
2022/08/26 06:13:28;;;;;;;;;;;;;;;26.19;55.26;100402.34;5027187;28;19913;-63
2022/08/26 06:16:14;;;;;;;;;;;;;;;26.21;55.15;100406.25;5030291;28;19912;-66
2022/08/26 06:18:58;;;;;;;;;;;;;;;26.25;55.22;100404.25;5026942;28;20291;-62
2022/08/26 06:21:45;;;;;;;;;;;;;;;26.27;55.36;100412.16;5033918;28;20018;-63
2022/08/26 06:27:33;;;;;;;;;;;;;;;26.40;55.64;100415.88;5031264;28;19917;-61
2022/08/26 06:30:18;;;;;;;;;;;;;;;26.48;55.84;100416.50;5023892;28;19914;-63
2022/08/26 06:33:02;;;;;;;;;;;;;;;26.53;56.02;100424.38;5028298;28;20283;-64
2022/08/26 06:35:49;;;;;;;;;;;;;;;26.60;55.71;100421.44;5032934;28;19913;-63
2022/08/26 06:38:33;;;;;;;;;;;;;;;26.67;55.24;100412.88;5033397;28;19913;-64
2022/08/26 06:41:19;;;;;;;;;;;;;;;26.71;54.92;100416.41;5032273;28;20288;-64
2022/08/26 06:44:05;;;;;;;;;;;;;;;26.69;55.42;100416.84;5029644;28;19913;-67
2022/08/26 06:46:50;;;;;;;;;;;;;;;26.76;55.63;100419.47;5021302;28;19917;-63
2022/08/26 06:49:36;;;;;;;;;;;;;;;26.86;54.46;100411.28;5032041;28;19913;-67
2022/08/26 06:52:21;;;;;;;;;;;;;;;26.96;54.29;100410.28;5025423;28;19913;-67
2022/08/26 06:55:07;;;;;;;;;;;;;;;26.91;54.91;100414.38;5014923;28;19912;-61
2022/08/26 06:57:53;;;;;;;;;;;;;;;27.03;52.22;100418.47;5014785;28;19921;-63
2022/08/26 07:00:38;;;;;;;;;;;;;;;27.15;52.42;100415.78;5016449;28;19913;-65
2022/08/26 07:03:23;;;;;;;;;;;;;;;27.24;52.67;100409.59;5025138;28;20291;-63
2022/08/26 07:06:09;;;;;;;;;;;;;;;27.24;52.34;100418.75;5016459;28;19913;-61
2022/08/26 07:09:00;;;;;;;;;;;;;;;27.30;52.36;100415.44;5020278;28;19917;-64
2022/08/26 07:11:46;;;;;;;;;;;;;;;27.33;52.09;100420.19;5013460;28;19913;-62
2022/08/26 07:14:33;;;;;;;;;;;;;;;27.37;51.17;100426.44;5022954;28;20284;-63
2022/08/26 07:17:18;;;;;;;;;;;;;;;27.41;50.32;100422.34;5026922;28;19914;-63
2022/08/26 07:20:05;;;;;;;;;;;;;;;27.43;50.88;100424.72;5033582;28;19921;-63
2022/08/26 07:22:50;;;;;;;;;;;;;;;27.47;50.89;100414.22;5036744;28;19913;-61
2022/08/26 07:25:39;;;;;;;;;;;;;;;27.54;50.39;100426.00;5033952;28;19913;-62
2022/08/26 07:28:23;;;;;;;;;;;;;;;27.51;49.85;100428.91;5011427;28;19917;-63
2022/08/26 07:31:09;;;;;;;;;;;;;;;27.43;50.10;100428.25;5012463;28;19914;-64
2022/08/26 07:33:54;;;;;;;;;;;;;;;27.58;48.79;100425.94;5013666;28;19914;-66
2022/08/26 07:36:38;;;;;;;;;;;;;;;27.59;48.88;100430.28;5014230;28;19913;-65
2022/08/26 07:39:24;;;;;;;;;;;;;;;27.61;49.65;100434.22;5002004;28;19913;-66
2022/08/26 07:42:12;;;;;;;;;;;;;;;27.61;48.87;100431.44;5000826;28;19913;-66
2022/08/26 07:44:56;;;;;;;;;;;;;;;27.55;49.32;100432.41;5026796;28;19917;-66
2022/08/26 07:47:41;;;;;;;;;;;;;;;27.54;48.37;100431.59;5023014;28;20308;-66
2022/08/26 07:50:26;;;;;;;;;;;;;;;27.60;48.89;100437.44;5030914;28;20308;-66
2022/08/26 07:53:31;;;;;;;;;;;;;;;27.71;47.74;100431.59;5012358;28;19917;-66
2022/08/26 07:56:15;;;;;;;;;;;;;;;27.74;48.58;100427.91;5024773;28;19921;-66
2022/08/26 07:59:00;;;;;;;;;;;;;;;27.75;48.57;100430.28;5032531;28;19913;-66
2022/08/26 08:01:45;;;;;;;;;;;;;;;27.61;48.54;100425.06;5032701;28;19935;-66
2022/08/26 08:04:30;;;;;;;;;;;;;;;27.57;48.23;100429.97;5032437;28;19913;-66
2022/08/26 08:07:15;;;;;;;;;;;;;;;27.66;48.31;100432.91;5029451;28;19921;-67
2022/08/26 08:10:00;;;;;;;;;;;;;;;27.52;48.72;100428.47;5032786;28;19913;-67
2022/08/26 08:12:44;;;;;;;;;;;;;;;27.69;47.76;100422.84;5032563;28;19913;-65
2022/08/26 08:15:31;;;;;;;;;;;;;;;27.79;47.27;100419.78;5032256;28;19916;-67
2022/08/26 08:18:16;;;;;;;;;;;;;;;27.96;47.02;100418.53;5028924;28;19921;-64
2022/08/26 08:21:02;;;;;;;;;;;;;;;27.93;47.03;100416.63;5035293;28;19913;-64
2022/08/26 08:23:46;;;;;;;;;;;;;;;27.82;47.35;100421.72;5032102;28;19917;-66
2022/08/26 08:26:31;;;;;;;;;;;;;;;27.86;47.30;100430.78;5032608;28;19913;-67
2022/08/26 08:29:15;;;;;;;;;;;;;;;27.87;47.52;100418.38;5031008;28;20624;-66
2022/08/26 08:32:00;;;;;;;;;;;;;;;27.83;47.56;100425.28;5031986;28;19913;-65
2022/08/26 08:34:45;;;;;;;;;;;;;;;27.91;46.77;100413.47;5019477;28;19913;-66
2022/08/26 08:37:29;;;;;;;;;;;;;;;28.02;46.65;100416.75;5016099;28;19913;-66
2022/08/26 08:40:16;;;;;;;;;;;;;;;28.04;46.79;100414.28;5008319;28;19914;-67
2022/08/26 08:43:03;;;;;;;;;;;;;;;28.11;46.44;100415.31;5012844;28;20320;-66
2022/08/26 08:45:51;;;;;;;;;;;;;;;28.00;47.07;100410.81;5012501;28;19913;-65
2022/08/26 08:48:40;;;;;;;;;;;;;;;27.90;46.92;100408.31;5024342;28;19925;-64
2022/08/26 08:51:32;;;;;;;;;;;;;;;28.00;46.34;100412.81;5022982;28;19924;-67
2022/08/26 08:54:18;;;;;;;;;;;;;;;28.16;46.18;100412.00;5024781;28;20300;-66
2022/08/26 08:57:17;;;;;;;;;;;;;;;28.21;45.91;100405.88;5020212;28;20372;-66
2022/08/26 09:00:04;;;;;;;;;;;;;;;28.61;44.73;100411.88;5025925;28;19913;-64
2022/08/26 09:02:55;;;;;;;;;;;;;;;28.46;45.33;100405.94;5028888;28;19913;-66
2022/08/26 09:05:42;;;;;;;;;;;;;;;28.48;44.95;100404.28;5031379;28;19913;-66
2022/08/26 09:08:30;;;;;;;;;;;;;;;28.25;45.36;100406.56;5015528;28;20336;-64
2022/08/26 09:11:15;;;;;;;;;;;;;;;28.32;45.11;100411.94;5024814;28;19913;-66
2022/08/26 09:13:59;;;;;;;;;;;;;;;28.20;45.29;100399.50;5027670;28;19917;-67
2022/08/26 09:16:56;;;;;;;;;;;;;;;28.45;44.87;100405.16;5031522;28;19912;-64
2022/08/26 09:19:48;;;;;;;13.73;6.13;;;;;;;28.34;45.40;100406.72;5028588;28;20731;-63
2022/08/26 09:22:35;;;;;;;8.32;5.32;;;;;;;28.41;46.54;100398.09;5030763;28;20036;-66
2022/08/26 09:25:20;;;;;;;9.10;4.40;;;;;;;28.23;47.36;100392.25;5035233;28;20052;-64
2022/08/26 09:28:15;;;;;;;11.68;6.45;;;;;;;28.86;43.98;100393.13;5030516;28;20064;-63
2022/08/26 09:31:00;;;;;;;9.75;5.57;;;;;;;28.65;44.01;100395.78;5028646;28;20048;-63
2022/08/26 09:33:45;;;;;;;14.05;6.22;;;;;;;28.96;43.53;100393.22;5030712;28;20044;-64
2022/08/26 09:36:42;;;;;;;14.95;5.65;;;;;;;29.18;44.95;100388.50;5030697;28;20048;-64
2022/08/26 09:39:36;;;;;;;14.65;5.30;;;;;;;28.95;44.71;100381.25;5029375;28;20053;-64
2022/08/26 09:42:24;;;;;;;9.20;5.28;;;;;;;29.68;42.59;100382.81;5030479;28;20056;-64
2022/08/26 09:45:11;;;;;;;13.88;4.55;;;;;;;29.47;43.25;100391.16;5030113;28;20048;-62
2022/08/26 09:47:57;;;;;;;8.27;4.68;;;;;;;29.46;43.51;100387.56;5028136;28;20053;-63
2022/08/26 09:50:57;;;;;;;9.30;4.80;;;;;;;29.06;45.05;100378.88;5027039;28;20049;-64
2022/08/26 09:53:51;;;;;;;11.68;4.97;;;;;;;28.98;45.26;100382.38;5021916;28;20041;-65
2022/08/26 09:56:37;;;;;;;13.07;4.78;;;;;;;28.82;45.75;100372.84;5031479;28;20040;-64
2022/08/26 09:59:29;;;;;;;8.23;4.88;;;;;;;28.43;45.88;100376.06;5026142;28;20060;-64
2022/08/26 10:02:19;;;;;;;13.70;4.28;;;;;;;28.27;46.37;100370.53;5026274;28;20045;-64
2022/08/26 10:05:14;;;;;;;9.45;4.55;;;;;;;28.96;44.46;100379.22;5003771;28;20056;-64
2022/08/26 10:08:16;;;;;;;8.57;4.35;;;;;;;29.87;42.43;100374.56;5029885;28;20045;-62
2022/08/26 10:11:09;;;;;;;7.78;4.22;;;;;;;30.10;41.23;100374.91;5029947;28;20120;-63
2022/08/26 10:14:00;;;;;;;8.23;4.05;;;;;;;29.48;42.74;100362.69;5029865;28;20040;-63
2022/08/26 10:16:58;;;;;;;12.68;4.63;;;;;;;29.50;42.29;100359.44;5021148;28;20044;-63
2022/08/26 10:19:47;;;;;;;5.50;4.32;;;;;;;29.67;41.87;100361.59;5000522;28;20053;-63
2022/08/26 10:23:03;;;;;;;9.82;4.28;;;;;;;29.62;41.86;100356.59;5005216;28;20052;-63
2022/08/26 10:26:04;;;;;;;11.32;3.80;;;;;;;29.35;42.92;100353.56;5004917;28;20056;-64
2022/08/26 10:29:06;;;;;;;5.57;3.83;;;;;;;29.82;41.64;100349.91;5010651;28;20064;-62
2022/08/26 10:31:58;;;;;;;8.15;3.65;;;;;;;30.08;41.58;100359.75;5018647;28;20052;-63
2022/08/26 10:34:43;;;;;;;6.82;4.13;;;;;;;29.16;43.80;100354.56;5021654;28;20069;-64
2022/08/26 10:37:37;;;;;;;7.05;3.47;;;;;;;28.70;45.20;100344.84;5005354;28;20041;-64
2022/08/26 10:40:26;;;;;;;11.67;3.53;;;;;;;28.58;45.55;100342.84;4998080;28;20057;-64
2022/08/26 10:43:15;;;;;;;6.88;4.13;;;;;;;29.20;43.21;100344.81;4995680;28;20053;-63
2022/08/26 10:46:07;;;;;;;7.75;4.47;;;;;;;29.84;41.95;100344.59;4991150;28;20049;-64
2022/08/26 10:49:00;;;;;;;10.85;4.55;;;;;;;29.37;43.33;100333.47;4991019;28;20055;-63
2022/08/26 10:51:57;;;;;;;8.35;4.13;;;;;;;29.90;40.88;100340.00;5004731;28;20040;-63
2022/08/26 10:55:05;;;;;;;10.73;4.03;;;;;;;29.82;42.22;100336.63;5005915;28;20049;-64
2022/08/26 10:58:12;;;;;;;5.47;3.40;;;;;;;29.68;42.84;100332.34;5003426;28;20053;-62
2022/08/26 11:04:32;;;;;;;7.57;3.80;;;;;;;30.33;40.97;100325.94;5015841;28;20056;-62
2022/08/26 11:07:36;;;;;;;8.57;4.07;;;;;;;30.15;41.39;100325.84;5012029;28;20052;-61
2022/08/26 11:10:21;;;;;;;7.57;3.45;;;;;;;30.28;40.56;100322.94;5009514;28;20057;-63
2022/08/26 11:13:07;;;;;;;6.85;4.03;;;;;;;30.44;40.81;100326.28;5031458;28;20048;-61
2022/08/26 11:15:52;;;;;;;6.47;3.90;;;;;;;29.84;41.81;100325.75;5022837;28;20052;-62
2022/08/26 11:18:40;;;;;;;12.77;4.25;;;;;;;30.17;40.42;100317.75;5018687;28;20052;-63
2022/08/26 11:21:42;;;;;;;9.90;3.28;;;;;;;29.99;41.67;100318.41;5032486;28;20052;-61
2022/08/26 11:24:42;;;;;;;12.13;3.75;;;;;;;29.90;42.11;100311.97;5036649;28;20064;-64
2022/08/26 11:27:37;;;;;;;6.68;3.95;;;;;;;30.05;41.35;100304.59;5024331;28;20076;-63
2022/08/26 11:30:22;;;;;;;6.55;3.47;;;;;;;29.69;42.18;100310.69;5031573;28;20037;-63
2022/08/26 11:33:07;;;;;;;8.27;3.92;;;;;;;29.71;42.01;100311.03;5047267;22;20420;-64
2022/08/26 11:35:52;;;;;;;5.22;3.53;;;;;;;29.15;43.51;100305.41;5033970;28;20052;-63
2022/08/26 11:38:41;;;;;;;9.68;4.97;;;;;;;28.81;44.63;100300.53;5033571;28;20045;-65
2022/08/26 11:41:28;;;;;;;8.23;4.35;;;;;;;28.87;44.09;100299.50;5039192;28;20056;-65
2022/08/26 11:44:22;;;;;;;6.03;3.88;;;;;;;28.87;44.51;100299.50;5033509;28;20057;-67
2022/08/26 11:47:10;;;;;;;8.65;3.90;;;;;;;28.73;45.05;100297.19;5033413;28;20045;-64
2022/08/26 11:50:11;;;;;;;10.23;3.75;;;;;;;28.75;44.53;100293.94;5025098;28;20044;-65
2022/08/26 11:53:03;;;;;;;9.25;4.47;;;;;;;28.87;44.35;100287.53;5033468;28;20056;-67
2022/08/26 11:55:51;;;;;;;6.45;4.35;;;;;;;28.47;45.59;100284.41;5040063;28;20511;-67
2022/08/26 11:58:42;;;;;;;12.57;4.95;;;;;;;28.19;46.62;100279.72;5035906;28;20044;-67
2022/08/26 12:01:34;;;;;;;10.98;4.70;;;;;;;28.14;46.77;100277.47;5033375;28;20535;-66
2022/08/26 12:04:36;;;;;;;24.83;4.82;;;;;;;28.34;46.31;100275.25;5033356;28;20068;-67
2022/08/26 12:07:28;;;;;;;12.60;4.63;;;;;;;28.23;46.40;100263.59;5033070;28;20088;-67
2022/08/26 12:10:24;;;;;;;10.05;4.32;;;;;;;28.28;46.06;100265.84;5032788;28;20052;-67
2022/08/26 12:13:19;;;;;;;14.98;4.03;;;;;;;28.17;46.62;100266.16;5024863;28;20523;-65
2022/08/26 12:16:05;;;;;;;13.45;4.72;;;;;;;28.13;46.91;100259.13;5033056;28;20061;-67
2022/08/26 12:18:50;;;;;;;15.07;4.78;;;;;;;28.16;46.65;100259.00;5033020;28;20045;-67
2022/08/26 12:21:35;;;;;;;23.38;5.22;;;;;;;28.19;46.42;100255.28;5039536;28;20052;-67
2022/08/26 12:24:20;;;;;;;7.32;4.35;;;;;;;28.77;45.43;100255.84;5039219;28;20052;-65
2022/08/26 12:27:05;;;;;;;17.00;4.15;;;;;;;28.87;44.07;100251.91;5033075;28;20052;-67
2022/08/26 12:30:14;;;;;;;10.13;5.03;;;;;;;29.29;43.33;100246.84;5032586;28;20524;-66
2022/08/26 12:33:10;;;;;;;10.38;3.67;;;;;;;29.15;44.06;100241.75;5034382;28;20052;-66
2022/08/26 12:35:56;;;;;;;8.43;3.70;;;;;;;28.77;45.05;100236.25;5039196;28;20512;-66
2022/08/26 12:38:41;;;;;;;11.85;4.28;;;;;;;29.15;43.98;100240.97;5034653;28;20393;-67
2022/08/26 12:41:43;;;;;;;10.48;4.20;;;;;;;28.62;45.79;100225.97;5032485;28;20057;-65
2022/08/26 12:44:36;;;;;;;7.72;3.70;;;;;;;28.99;42.79;100218.75;5032220;28;20048;-66
2022/08/26 12:47:31;;;;;;;11.80;3.90;;;;;;;29.15;43.28;100224.19;5032306;28;20053;-71
2022/08/26 12:50:24;;;;;;;7.97;3.65;;;;;;;29.75;42.14;100227.59;5032226;28;20543;-68
2022/08/26 12:53:09;;;;;;;9.37;4.10;;;;;;;29.97;42.21;100208.72;5032202;28;20056;-68
2022/08/26 12:55:57;;;;;;;4.45;3.53;;;;;;;29.69;43.16;100204.97;5023864;28;20056;-65
2022/08/26 12:58:42;;;;;;;5.15;3.03;;;;;;;30.57;40.09;100199.91;5033524;28;20045;-66
2022/08/26 13:01:36;;;;;;;6.35;3.90;;;;;;;30.34;41.33;100192.81;5032084;28;20048;-67
2022/08/26 13:07:24;;;;;;;6.90;4.10;;;;;;;30.08;41.87;100191.47;4963195;29;20074;-82
2022/08/26 13:10:33;;;;;;;5.97;4.28;;;;;;;29.84;42.97;100188.38;4967597;28;20046;-82
2022/08/26 13:13:17;;;;;;;8.90;3.90;;;;;;;30.39;40.88;100188.59;4968040;29;20046;-83
2022/08/26 13:16:03;;;;;;;12.48;3.63;;;;;;;31.27;39.34;100182.03;4965185;28;20062;-83
2022/08/26 13:18:51;;;;;;;4.68;3.25;;;;;;;30.80;40.81;100178.88;4963326;28;20042;-83
2022/08/26 13:21:42;;;;;;;9.15;3.05;;;;;;;30.00;42.53;100178.97;4962821;28;20046;-83
2022/08/26 13:24:35;;;;;;;6.70;3.42;;;;;;;29.54;43.53;100167.50;4972568;28;20050;-83
2022/08/26 13:27:22;;;;;;;11.75;4.90;;;;;;;30.14;41.00;100167.19;4978442;28;20053;-83
2022/08/26 13:30:08;;;;;;;8.93;3.67;;;;;;;30.09;42.00;100162.97;4960966;28;20066;-83
2022/08/26 13:32:58;;;;;;;5.80;3.70;;;;;;;29.45;43.80;100163.88;4978701;28;20053;-83
2022/08/26 13:35:43;;;;;;;8.35;3.67;;;;;;;29.26;44.21;100165.72;4938812;29;20051;-83
2022/08/26 13:38:28;;;;;;;5.65;3.65;;;;;;;29.54;43.45;100161.91;4935367;29;20043;-83
2022/08/26 13:41:13;;;;;;;9.43;3.70;;;;;;;29.84;42.45;100160.34;4943519;29;20055;-83
2022/08/26 13:43:58;;;;;;;6.35;4.15;;;;;;;30.37;41.15;100163.84;4957329;28;20400;-83
2022/08/26 13:46:44;;;;;;;9.93;3.38;;;;;;;30.25;41.82;100161.91;4972319;28;20057;-83
2022/08/26 13:49:29;;;;;;;14.55;3.97;;;;;;;30.61;39.89;100160.47;4967239;28;20587;-82
2022/08/26 13:52:15;;;;;;;8.75;3.13;;;;;;;30.44;40.85;100157.91;4965799;29;20459;-83
2022/08/26 13:54:59;;;;;;;4.93;3.35;;;;;;;29.92;42.59;100149.66;4966730;29;20046;-83
2022/08/26 13:57:44;;;;;;;6.93;4.13;;;;;;;30.21;41.17;100147.28;4954219;29;20046;-83
2022/08/26 14:00:30;;;;;;;8.35;4.18;;;;;;;31.00;39.33;100151.09;4957559;28;20046;-83
2022/08/26 14:03:15;;;;;;;7.50;3.75;;;;;;;30.99;39.65;100149.53;4966958;28;20050;-83
2022/08/26 14:06:01;;;;;;;8.82;4.32;;;;;;;31.35;38.20;100149.53;4947587;28;20054;-83
2022/08/26 14:08:47;;;;;;;11.32;4.43;;;;;;;31.25;38.55;100142.38;4960005;28;20084;-83
2022/08/26 14:11:32;;;;;;;8.10;3.47;;;;;;;30.99;39.31;100141.13;4971373;28;20049;-83